Vandenberg Air Force Base Lompoc US
ICAO: KVBG
IATA: VBG
Category: Large
Scheduled Services: No

Elevation: 369 ft
TransAlt. 18000 ft.

Airport Communications:
SANTA BARB APP/DEP:124.15
COMD POST:31.1
ATIS:133.125
CTAF:124.95
GND/CLNC DEL:121.75
RANGE CON:121.4
PMSV METRO:34.24
PTD:126.2
TWR:124.95

KVBG Zoom In..

Runways:

(A) RW 12 length 15000 ft width 200 ft
ILS 110.10 / hdg 122

(B) RW 30 length 15000 ft width 200 ft
ILS 110.10 / hdg 302

Location; KVBG
Day. 26 / Time. 04.13 Zulu
* Altimeter: 30.11
* Temperature: 12° c. 53.6°f.
* Wind from: 360° Speed 07 kn.
Dewpoint: 11° c.
Visibility: 8 Statute Miles.
Clouds: Overcast 800 ft.

KVBG 260413Z AUTO 36007KT 8SM OVC008 12/11 A3011 RMK AO2 SLP199


Wind From 360°
Speed 07 kn.

 
 
jpsmedia.com for Web Design SOUNDCLOUD worldairports.se 2018   terms of use